createdAt,value
2018-05-21T00:01:36.100Z,3.50
2018-05-21T00:04:03.626Z,3.43
2018-05-21T00:06:31.153Z,3.27
2018-05-21T00:08:58.673Z,3.53
2018-05-21T00:11:26.224Z,3.60
2018-05-21T00:13:53.752Z,3.50
2018-05-21T00:16:21.276Z,3.27
2018-05-21T00:18:48.811Z,3.67
2018-05-21T00:21:16.361Z,3.67
2018-05-21T00:23:43.889Z,3.67
2018-05-21T00:26:11.421Z,3.33
2018-05-21T00:28:38.955Z,4.43
2018-05-21T00:31:06.485Z,3.53
2018-05-21T00:33:34.004Z,3.27
2018-05-21T00:36:01.516Z,3.80
2018-05-21T00:38:29.042Z,3.50
2018-05-21T00:40:56.573Z,3.67
2018-05-21T00:43:24.091Z,3.70
2018-05-21T00:45:51.615Z,3.80
2018-05-21T00:48:19.140Z,3.47
2018-05-21T00:50:46.655Z,3.20
2018-05-21T00:53:14.177Z,4.00
2018-05-21T00:55:41.705Z,3.53
2018-05-21T00:58:09.233Z,3.30
2018-05-21T01:00:36.756Z,3.90
2018-05-21T01:03:04.283Z,3.33
2018-05-21T01:05:31.817Z,3.77
2018-05-21T01:07:59.340Z,3.30
2018-05-21T01:10:26.861Z,3.50
2018-05-21T01:12:54.383Z,3.20
2018-05-21T01:15:21.908Z,3.83
2018-05-21T01:17:49.433Z,3.50
2018-05-21T01:20:16.954Z,3.40
2018-05-21T01:22:44.480Z,3.50
2018-05-21T01:25:12.015Z,3.50
2018-05-21T01:27:39.540Z,3.97
2018-05-21T01:30:07.064Z,3.23
2018-05-21T01:32:34.594Z,3.67
2018-05-21T01:35:02.124Z,3.60
2018-05-21T01:37:29.680Z,3.87
2018-05-21T01:39:57.210Z,3.67
2018-05-21T01:42:24.740Z,3.53
2018-05-21T01:44:52.256Z,3.90
2018-05-21T01:47:19.783Z,3.70
2018-05-21T01:49:47.308Z,3.80
2018-05-21T01:52:14.825Z,3.20
2018-05-21T01:54:42.348Z,3.43
2018-05-21T01:57:09.885Z,3.30
2018-05-21T01:59:37.413Z,3.30
2018-05-21T02:02:04.930Z,3.10
2018-05-21T02:04:32.459Z,3.20
2018-05-21T02:06:59.986Z,3.20
2018-05-21T02:09:27.516Z,3.10
2018-05-21T02:11:55.037Z,3.37
2018-05-21T02:14:22.569Z,3.00
2018-05-21T02:16:50.088Z,3.10
2018-05-21T02:19:17.620Z,3.30
2018-05-21T02:21:45.140Z,3.07
2018-05-21T02:24:12.669Z,3.00
2018-05-21T02:26:40.183Z,3.10
2018-05-21T02:29:07.714Z,2.87
2018-05-21T02:31:35.243Z,3.30
2018-05-21T02:34:02.785Z,3.27
2018-05-21T02:36:30.300Z,2.93
2018-05-21T02:38:57.828Z,3.07
2018-05-21T02:41:25.352Z,2.97
2018-05-21T02:43:52.879Z,3.13
2018-05-21T02:46:20.396Z,3.00
2018-05-21T02:48:47.919Z,3.10
2018-05-21T02:51:15.443Z,2.70
2018-05-21T02:53:42.973Z,3.13
2018-05-21T02:56:10.521Z,3.17
2018-05-21T02:58:38.036Z,3.20
2018-05-21T03:01:05.553Z,2.63
2018-05-21T03:03:33.085Z,3.10
2018-05-21T03:06:00.611Z,2.60
2018-05-21T03:08:28.132Z,2.93
2018-05-21T03:10:55.665Z,3.13
2018-05-21T03:13:23.194Z,2.73
2018-05-21T03:15:50.713Z,2.70
2018-05-21T03:18:18.238Z,2.83
2018-05-21T03:20:45.768Z,3.07
2018-05-21T03:23:13.291Z,2.90
2018-05-21T03:25:40.813Z,2.77
2018-05-21T03:28:08.352Z,3.40
2018-05-21T03:30:35.874Z,2.87
2018-05-21T03:33:03.395Z,3.23
2018-05-21T03:35:30.930Z,3.13
2018-05-21T03:37:58.454Z,3.63
2018-05-21T03:40:25.975Z,2.90
2018-05-21T03:42:53.500Z,2.70
2018-05-21T03:45:21.024Z,3.53
2018-05-21T03:47:48.547Z,3.10
2018-05-21T03:50:16.071Z,2.80
2018-05-21T03:52:43.599Z,3.20
2018-05-21T03:55:11.127Z,2.90
2018-05-21T03:57:38.657Z,2.90
2018-05-21T04:00:18.021Z,2.93
2018-05-21T04:02:57.401Z,3.00
2018-05-21T04:05:24.925Z,2.80
2018-05-21T04:07:52.449Z,3.30
2018-05-21T04:10:19.964Z,3.10
2018-05-21T04:12:48.294Z,3.00
2018-05-21T04:15:15.814Z,3.13
2018-05-21T04:17:43.337Z,3.13
2018-05-21T04:20:10.860Z,3.17
2018-05-21T04:22:38.383Z,3.37
2018-05-21T04:25:05.925Z,3.13
2018-05-21T04:27:33.443Z,3.37
2018-05-21T04:30:00.966Z,3.87
2018-05-21T04:32:28.490Z,3.17
2018-05-21T04:34:56.012Z,3.33
2018-05-21T04:37:23.541Z,2.93
2018-05-21T04:39:51.070Z,3.20
2018-05-21T04:42:18.625Z,3.30
2018-05-21T04:44:46.189Z,3.70
2018-05-21T04:47:13.719Z,3.27
2018-05-21T04:49:41.245Z,3.00
2018-05-21T04:52:08.781Z,2.77
2018-05-21T04:54:36.297Z,3.10
2018-05-21T04:57:03.818Z,2.90
2018-05-21T04:59:31.332Z,3.13
2018-05-21T05:01:58.873Z,2.80
2018-05-21T05:04:26.402Z,2.77
2018-05-21T05:06:53.957Z,3.23
2018-05-21T05:09:21.485Z,2.73
2018-05-21T05:11:49.009Z,2.77
2018-05-21T05:14:16.529Z,3.10
2018-05-21T05:16:44.062Z,3.00
2018-05-21T05:19:11.584Z,3.10
2018-05-21T05:21:39.112Z,2.93
2018-05-21T05:24:06.634Z,3.33
2018-05-21T05:26:34.217Z,2.70
2018-05-21T05:29:01.697Z,3.13
2018-05-21T05:31:29.231Z,3.57
2018-05-21T05:33:56.750Z,3.27
2018-05-21T05:36:24.304Z,3.10
2018-05-21T05:38:51.820Z,3.00
2018-05-21T05:41:19.342Z,3.10
2018-05-21T05:43:46.870Z,3.33
2018-05-21T05:46:14.399Z,3.30
2018-05-21T05:48:41.940Z,3.13
2018-05-21T05:51:09.464Z,3.10
2018-05-21T05:53:36.985Z,3.03
2018-05-21T05:56:04.552Z,2.97
2018-05-21T05:58:32.080Z,2.90
2018-05-21T06:00:59.630Z,3.57
2018-05-21T06:03:27.170Z,3.53
2018-05-21T06:05:54.688Z,3.33
2018-05-21T06:08:22.224Z,3.10
2018-05-21T06:10:49.750Z,3.00
2018-05-21T06:13:17.281Z,3.33
2018-05-21T06:15:44.870Z,3.40
2018-05-21T06:18:12.405Z,5.20
2018-05-21T06:20:39.930Z,3.30
2018-05-21T06:23:07.460Z,3.43
2018-05-21T06:25:34.997Z,3.40
2018-05-21T06:28:02.521Z,3.17
2018-05-21T06:30:30.058Z,3.10
2018-05-21T06:32:57.603Z,2.60
2018-05-21T06:35:25.127Z,3.00
2018-05-21T06:37:52.726Z,2.97
2018-05-21T06:40:20.248Z,2.93
2018-05-21T06:42:47.783Z,3.27
2018-05-21T06:45:15.835Z,2.57
2018-05-21T06:47:43.400Z,2.70
2018-05-21T06:50:10.913Z,3.30
2018-05-21T06:52:38.441Z,2.87
2018-05-21T06:55:05.973Z,3.00
2018-05-21T06:57:33.521Z,2.47
2018-05-21T07:00:01.061Z,2.67
2018-05-21T07:02:28.613Z,2.37
2018-05-21T07:04:56.140Z,2.57
2018-05-21T07:07:23.669Z,2.50
2018-05-21T07:09:51.193Z,2.90
2018-05-21T07:12:18.722Z,2.77
2018-05-21T07:14:46.268Z,2.28
2018-05-21T07:17:13.788Z,2.33
2018-05-21T07:19:41.329Z,2.33
2018-05-21T07:22:08.843Z,2.35
2018-05-21T07:24:36.365Z,2.50
2018-05-21T07:27:03.902Z,2.00
2018-05-21T07:29:31.441Z,1.90
2018-05-21T07:31:58.965Z,2.05
2018-05-21T07:34:26.484Z,2.08
2018-05-21T07:36:54.006Z,1.50
2018-05-21T07:39:21.544Z,1.80
2018-05-21T07:41:49.080Z,1.70
2018-05-21T07:44:16.605Z,1.67
2018-05-21T07:46:44.132Z,2.05
2018-05-21T07:49:11.658Z,1.60
2018-05-21T07:51:39.254Z,1.73
2018-05-21T07:54:06.741Z,1.92
2018-05-21T07:56:34.269Z,1.60
2018-05-21T07:59:01.794Z,3.00
2018-05-21T08:01:29.331Z,1.45
2018-05-21T08:03:56.854Z,2.05
2018-05-21T08:06:24.385Z,1.60
2018-05-21T08:08:51.918Z,1.50
2018-05-21T08:11:19.437Z,1.50
2018-05-21T08:13:46.959Z,1.45
2018-05-21T08:16:14.476Z,1.73
2018-05-21T08:18:42.002Z,1.70
2018-05-21T08:21:09.533Z,1.55
2018-05-21T08:23:37.130Z,1.52
2018-05-21T08:26:04.654Z,1.60
2018-05-21T08:28:32.178Z,2.00
2018-05-21T08:30:59.716Z,1.80
2018-05-21T08:33:27.327Z,1.70
2018-05-21T08:35:54.863Z,1.90
2018-05-21T08:38:22.380Z,1.80
2018-05-21T08:40:49.906Z,1.80
2018-05-21T08:43:17.434Z,1.62
2018-05-21T08:45:45.024Z,1.70
2018-05-21T08:48:12.554Z,1.58
2018-05-21T08:50:40.145Z,1.70
2018-05-21T08:53:07.707Z,1.50
2018-05-21T08:55:35.268Z,1.70
2018-05-21T08:58:02.794Z,1.60
2018-05-21T09:00:30.417Z,1.77
2018-05-21T09:02:57.877Z,1.60
2018-05-21T09:05:25.399Z,1.77
2018-05-21T09:07:52.984Z,1.73
2018-05-21T09:10:20.527Z,1.70
2018-05-21T09:12:48.053Z,1.73
2018-05-21T09:15:15.588Z,1.65
2018-05-21T09:17:43.119Z,1.85
2018-05-21T09:20:10.672Z,1.40
2018-05-21T09:22:38.245Z,1.60
2018-05-21T09:25:05.776Z,1.77
2018-05-21T09:27:33.322Z,1.55
2018-05-21T09:30:00.856Z,1.75
2018-05-21T09:32:28.408Z,1.60
2018-05-21T09:34:55.956Z,1.75
2018-05-21T09:37:23.485Z,1.98
2018-05-21T09:39:51.020Z,2.05
2018-05-21T09:42:18.550Z,2.22
2018-05-21T09:44:46.082Z,2.08
2018-05-21T09:47:13.621Z,1.73
2018-05-21T09:49:41.145Z,1.90
2018-05-21T09:52:08.665Z,2.00
2018-05-21T09:54:36.198Z,2.00
2018-05-21T09:57:03.729Z,1.55
2018-05-21T09:59:31.265Z,1.77
2018-05-21T10:01:58.856Z,2.40
2018-05-21T10:04:26.399Z,2.10
2018-05-21T10:06:53.930Z,1.90
2018-05-21T10:09:21.455Z,1.70
2018-05-21T10:11:48.989Z,1.87
2018-05-21T10:14:16.513Z,1.75
2018-05-21T10:16:44.049Z,1.90
2018-05-21T10:19:11.587Z,2.08
2018-05-21T10:21:39.119Z,1.75
2018-05-21T10:24:06.641Z,1.80
2018-05-21T10:26:34.171Z,2.00
2018-05-21T10:29:01.696Z,2.00
2018-05-21T10:31:29.219Z,1.92
2018-05-21T10:33:56.732Z,2.20
2018-05-21T10:36:24.260Z,1.90
2018-05-21T10:38:51.791Z,1.95
2018-05-21T10:41:19.331Z,2.35
2018-05-21T10:43:46.922Z,2.20
2018-05-21T10:46:14.430Z,2.15
2018-05-21T10:48:41.964Z,2.47
2018-05-21T10:51:09.492Z,2.30
2018-05-21T10:53:37.026Z,2.33
2018-05-21T10:56:04.586Z,2.53
2018-05-21T10:58:32.109Z,2.57
2018-05-21T11:00:59.670Z,2.20
2018-05-21T11:03:27.193Z,2.53
2018-05-21T11:05:54.717Z,2.60
2018-05-21T11:08:22.271Z,2.07
2018-05-21T11:10:49.826Z,2.23
2018-05-21T11:13:17.357Z,2.40
2018-05-21T11:15:44.881Z,2.30
2018-05-21T11:18:13.630Z,2.47
2018-05-21T11:20:41.148Z,2.50
2018-05-21T11:23:08.665Z,2.60
2018-05-21T11:25:36.200Z,2.47
2018-05-21T11:28:03.896Z,2.30
2018-05-21T11:30:31.424Z,2.50
2018-05-21T11:32:58.964Z,2.90
2018-05-21T11:35:26.569Z,2.43
2018-05-21T11:37:54.098Z,2.23
2018-05-21T11:40:24.184Z,2.13
2018-05-21T11:42:51.706Z,2.47
2018-05-21T11:45:21.097Z,2.40
2018-05-21T11:47:48.627Z,2.20
2018-05-21T11:50:16.993Z,2.33
2018-05-21T11:52:44.541Z,2.27
2018-05-21T11:55:12.084Z,2.20
2018-05-21T11:57:39.608Z,2.33
2018-05-21T12:00:07.129Z,2.03
2018-05-21T12:02:34.730Z,2.07
2018-05-21T12:05:02.206Z,2.20
2018-05-21T12:07:29.737Z,1.97
2018-05-21T12:09:57.270Z,2.30
2018-05-21T12:12:24.797Z,2.03
2018-05-21T12:14:52.329Z,2.10
2018-05-21T12:17:19.868Z,2.20
2018-05-21T12:19:47.395Z,2.13
2018-05-21T12:22:14.925Z,1.83
2018-05-21T12:24:42.448Z,1.93
2018-05-21T12:27:09.990Z,2.40
2018-05-21T12:29:37.534Z,1.77
2018-05-21T12:32:05.063Z,4.40
2018-05-21T12:34:32.588Z,2.10
2018-05-21T12:37:00.112Z,2.00
2018-05-21T12:39:27.637Z,1.90
2018-05-21T12:41:55.164Z,2.60
2018-05-21T12:44:23.764Z,1.80
2018-05-21T12:46:51.285Z,2.13
2018-05-21T12:49:18.848Z,1.70
2018-05-21T12:51:46.395Z,2.10
2018-05-21T12:54:14.570Z,2.03
2018-05-21T12:56:42.087Z,2.80
2018-05-21T12:59:09.654Z,2.00
2018-05-21T13:01:37.180Z,1.97
2018-05-21T13:04:04.700Z,1.80
2018-05-21T13:06:32.231Z,2.00
2018-05-21T13:08:59.758Z,2.20
2018-05-21T13:11:27.275Z,1.70
2018-05-21T13:13:54.794Z,2.10
2018-05-21T13:16:22.370Z,1.80
2018-05-21T13:18:49.911Z,1.87
2018-05-21T13:21:17.423Z,2.03
2018-05-21T13:23:45.053Z,2.17
2018-05-21T13:26:12.583Z,1.93
2018-05-21T13:28:40.098Z,1.80
2018-05-21T13:31:07.729Z,1.95
2018-05-21T13:33:35.265Z,1.70
2018-05-21T13:36:02.811Z,1.80
2018-05-21T13:38:30.375Z,1.80
2018-05-21T13:40:57.901Z,1.80
2018-05-21T13:43:25.430Z,1.70
2018-05-21T13:45:52.951Z,1.93
2018-05-21T13:48:20.478Z,1.77
2018-05-21T13:50:48.021Z,2.17
2018-05-21T13:53:15.591Z,1.83
2018-05-21T13:55:43.108Z,1.90
2018-05-21T13:58:10.624Z,1.93
2018-05-21T14:00:38.145Z,2.10
2018-05-21T14:03:05.672Z,2.00
2018-05-21T14:05:33.192Z,1.70
2018-05-21T14:08:00.723Z,1.70
2018-05-21T14:10:28.240Z,2.00
2018-05-21T14:12:55.771Z,1.93
2018-05-21T14:15:23.299Z,1.87
2018-05-21T14:17:50.811Z,2.10
2018-05-21T14:20:18.346Z,1.90
2018-05-21T14:22:45.878Z,1.93
2018-05-21T14:25:13.435Z,2.10
2018-05-21T14:27:40.965Z,2.07
2018-05-21T14:30:08.494Z,2.00
2018-05-21T14:32:36.016Z,1.97
2018-05-21T14:35:03.540Z,1.90
2018-05-21T14:37:31.064Z,1.77
2018-05-21T14:39:58.589Z,1.97
2018-05-21T14:42:26.119Z,2.10
2018-05-21T14:44:53.642Z,2.07
2018-05-21T14:47:21.171Z,1.77
2018-05-21T14:49:48.705Z,2.10
2018-05-21T14:52:16.223Z,2.23
2018-05-21T14:54:43.747Z,2.10
2018-05-21T14:57:11.275Z,2.30
2018-05-21T14:59:38.792Z,2.20
2018-05-21T15:02:06.417Z,1.90
2018-05-21T15:04:33.888Z,2.03
2018-05-21T15:07:01.411Z,2.30
2018-05-21T15:09:28.938Z,1.90
2018-05-21T15:11:56.467Z,1.93
2018-05-21T15:14:23.992Z,2.00
2018-05-21T15:16:51.515Z,2.10
2018-05-21T15:19:19.045Z,2.17
2018-05-21T15:21:46.570Z,2.00
2018-05-21T15:24:14.092Z,2.27
2018-05-21T15:26:41.615Z,2.17
2018-05-21T15:29:09.146Z,2.07
2018-05-21T15:31:36.671Z,2.13
2018-05-21T15:34:04.206Z,2.07
2018-05-21T15:36:31.739Z,2.30
2018-05-21T15:38:59.268Z,2.40
2018-05-21T15:41:26.791Z,2.20
2018-05-21T15:43:54.315Z,2.37
2018-05-21T15:46:21.860Z,2.00
2018-05-21T15:48:49.388Z,2.40
2018-05-21T15:51:16.918Z,2.03
2018-05-21T15:53:44.469Z,2.27
2018-05-21T15:56:11.996Z,1.90
2018-05-21T15:58:39.525Z,1.83
2018-05-21T16:01:07.055Z,2.30
2018-05-21T16:03:34.575Z,2.40
2018-05-21T16:06:02.101Z,2.20
2018-05-21T16:08:29.644Z,2.47
2018-05-21T16:10:57.188Z,2.30
2018-05-21T16:13:24.782Z,2.23
2018-05-21T16:15:52.277Z,2.57
2018-05-21T16:18:19.800Z,2.03
2018-05-21T16:20:47.323Z,2.20
2018-05-21T16:23:14.883Z,2.63
2018-05-21T16:25:42.440Z,2.07
2018-05-21T16:28:09.962Z,2.13
2018-05-21T16:30:37.532Z,2.30
2018-05-21T16:33:05.057Z,2.20
2018-05-21T16:35:32.598Z,2.17
2018-05-21T16:38:00.860Z,2.00
2018-05-21T16:40:28.503Z,2.53
2018-05-21T16:42:56.055Z,2.40
2018-05-21T16:45:23.575Z,2.20
2018-05-21T16:47:51.207Z,2.20
2018-05-21T16:50:18.758Z,2.47
2018-05-21T16:52:46.368Z,2.17
2018-05-21T16:55:13.911Z,2.60
2018-05-21T16:57:41.439Z,2.30
2018-05-21T17:00:09.036Z,2.00
2018-05-21T17:02:36.563Z,1.90
2018-05-21T17:05:04.138Z,2.30
2018-05-21T17:07:31.800Z,2.40
2018-05-21T17:09:59.445Z,2.07
2018-05-21T17:12:27.021Z,3.40
2018-05-21T17:14:54.667Z,2.20
2018-05-21T17:17:22.192Z,2.30
2018-05-21T17:19:49.949Z,2.10
2018-05-21T17:22:17.656Z,2.37
2018-05-21T17:24:45.318Z,2.43
2018-05-21T17:27:12.878Z,2.63
2018-05-21T17:29:40.422Z,2.63
2018-05-21T17:32:07.950Z,1.90
2018-05-21T17:34:35.665Z,2.20
2018-05-21T17:37:03.296Z,2.08
2018-05-21T17:39:30.812Z,2.10
2018-05-21T17:41:58.451Z,2.20
2018-05-21T17:44:25.974Z,1.93
2018-05-21T17:46:53.495Z,2.00
2018-05-21T17:49:21.105Z,2.73
2018-05-21T17:51:48.706Z,2.20
2018-05-21T17:54:16.242Z,2.00
2018-05-21T17:56:43.769Z,2.20
2018-05-21T17:59:11.367Z,2.30
2018-05-21T18:01:38.887Z,2.43
2018-05-21T18:04:06.422Z,2.50
2018-05-21T18:06:34.065Z,1.90
2018-05-21T18:09:01.688Z,2.17
2018-05-21T18:11:29.388Z,2.40
2018-05-21T18:13:56.980Z,2.30
2018-05-21T18:16:24.745Z,2.60
2018-05-21T18:18:52.336Z,2.30
2018-05-21T18:21:19.861Z,2.23
2018-05-21T18:23:47.400Z,2.60
2018-05-21T18:26:15.035Z,2.30
2018-05-21T18:28:42.590Z,2.40
2018-05-21T18:31:10.125Z,2.27
2018-05-21T18:33:37.654Z,2.53
2018-05-21T18:36:05.310Z,2.27
2018-05-21T18:38:32.787Z,2.40
2018-05-21T18:41:00.317Z,2.43
2018-05-21T18:43:27.861Z,2.37
2018-05-21T18:45:55.387Z,2.27
2018-05-21T18:48:23.065Z,2.53
2018-05-21T18:50:50.536Z,2.40
2018-05-21T18:53:18.093Z,2.10
2018-05-21T18:55:45.656Z,2.33
2018-05-21T18:58:13.188Z,2.60
2018-05-21T19:00:40.729Z,2.47
2018-05-21T19:03:08.284Z,2.63
2018-05-21T19:05:35.822Z,2.90
2018-05-21T19:08:03.376Z,2.53
2018-05-21T19:10:31.358Z,2.80
2018-05-21T19:12:58.978Z,3.00
2018-05-21T19:15:26.497Z,3.10
2018-05-21T19:17:54.024Z,2.60
2018-05-21T19:20:21.558Z,2.80
2018-05-21T19:22:49.090Z,3.13
2018-05-21T19:25:16.611Z,2.87
2018-05-21T19:27:44.245Z,2.60
2018-05-21T19:30:11.770Z,3.10
2018-05-21T19:32:39.330Z,2.80
2018-05-21T19:35:06.893Z,3.20
2018-05-21T19:37:34.481Z,3.37
2018-05-21T19:40:02.010Z,3.23
2018-05-21T19:42:29.597Z,4.10
2018-05-21T19:44:57.129Z,3.20
2018-05-21T19:47:24.726Z,3.40
2018-05-21T19:49:52.266Z,3.10
2018-05-21T19:52:19.808Z,3.10
2018-05-21T19:54:47.332Z,3.33
2018-05-21T19:57:14.864Z,3.70
2018-05-21T19:59:42.385Z,3.40
2018-05-21T20:02:09.908Z,3.17
2018-05-21T20:04:37.435Z,3.00
2018-05-21T20:07:04.965Z,3.17
2018-05-21T20:09:32.497Z,2.97
2018-05-21T20:12:00.015Z,3.17
2018-05-21T20:14:27.541Z,3.73
2018-05-21T20:16:55.072Z,3.17
2018-05-21T20:19:22.666Z,3.30
2018-05-21T20:21:50.152Z,3.60
2018-05-21T20:24:17.682Z,3.33
2018-05-21T20:26:45.207Z,3.97
2018-05-21T20:29:12.748Z,3.70
2018-05-21T20:31:40.272Z,3.50
2018-05-21T20:34:07.808Z,3.30
2018-05-21T20:36:35.343Z,2.90
2018-05-21T20:39:02.872Z,3.43
2018-05-21T20:41:30.400Z,3.87
2018-05-21T20:43:57.970Z,3.90
2018-05-21T20:46:25.501Z,3.73
2018-05-21T20:48:53.020Z,3.97
2018-05-21T20:51:20.629Z,3.90
2018-05-21T20:53:48.161Z,3.40
2018-05-21T20:56:15.675Z,3.03
2018-05-21T20:58:43.185Z,3.27
2018-05-21T21:01:10.724Z,3.20
2018-05-21T21:03:38.244Z,3.17
2018-05-21T21:06:05.760Z,2.80
2018-05-21T21:08:33.298Z,2.80
2018-05-21T21:11:00.815Z,2.90
2018-05-21T21:13:28.339Z,2.77
2018-05-21T21:15:55.860Z,2.80
2018-05-21T21:18:23.376Z,3.07
2018-05-21T21:20:50.900Z,4.47
2018-05-21T21:23:18.446Z,2.97
2018-05-21T21:25:45.977Z,2.90
2018-05-21T21:28:13.492Z,3.47
2018-05-21T21:30:41.015Z,3.00
2018-05-21T21:33:08.542Z,3.00
2018-05-21T21:35:36.067Z,2.80
2018-05-21T21:38:03.594Z,2.90
2018-05-21T21:40:31.126Z,2.87
2018-05-21T21:42:58.655Z,3.00
2018-05-21T21:45:26.169Z,3.00
2018-05-21T21:47:53.687Z,2.77
2018-05-21T21:50:21.214Z,2.90
2018-05-21T21:52:48.743Z,3.00
2018-05-21T21:55:16.272Z,3.00
2018-05-21T21:57:43.797Z,3.03
2018-05-21T22:00:11.327Z,3.00
2018-05-21T22:02:38.859Z,2.70
2018-05-21T22:05:06.392Z,3.30
2018-05-21T22:07:33.945Z,3.13
2018-05-21T22:10:01.463Z,3.00
2018-05-21T22:12:28.991Z,3.07
2018-05-21T22:14:56.514Z,3.40
2018-05-21T22:17:24.027Z,3.00
2018-05-21T22:19:51.555Z,2.93
2018-05-21T22:22:19.096Z,2.83
2018-05-21T22:24:46.653Z,3.70
2018-05-21T22:27:14.179Z,3.20
2018-05-21T22:29:41.709Z,3.00
2018-05-21T22:32:09.255Z,2.93
2018-05-21T22:34:36.823Z,3.20
2018-05-21T22:37:04.347Z,3.73
2018-05-21T22:39:31.876Z,3.20
2018-05-21T22:41:59.399Z,3.33
2018-05-21T22:44:26.924Z,3.40
2018-05-21T22:46:54.440Z,3.23
2018-05-21T22:49:21.953Z,3.20
2018-05-21T22:51:49.550Z,3.43
2018-05-21T22:54:28.795Z,3.27
2018-05-21T22:56:56.316Z,3.20
2018-05-21T22:59:23.840Z,2.97
2018-05-21T23:01:51.356Z,3.33
2018-05-21T23:04:18.870Z,3.30
2018-05-21T23:06:46.387Z,3.33
2018-05-21T23:09:13.916Z,3.30
2018-05-21T23:11:41.445Z,3.47
2018-05-21T23:14:08.976Z,3.63
2018-05-21T23:16:36.538Z,3.60
2018-05-21T23:19:04.065Z,3.37
2018-05-21T23:21:31.589Z,3.77
2018-05-21T23:23:59.113Z,3.73
2018-05-21T23:26:26.643Z,3.37
2018-05-21T23:28:54.207Z,3.23
2018-05-21T23:31:21.727Z,3.50
2018-05-21T23:33:49.258Z,2.97
2018-05-21T23:36:16.780Z,3.40
2018-05-21T23:38:44.298Z,3.30
2018-05-21T23:41:11.833Z,3.17
2018-05-21T23:43:39.350Z,3.77
